Terminal Aerodrome Forecast
Issued by NWS Twin Cities, MN

Home | Current Version | Previous Version | Graphics & Text | Print | Product List | Glossary On
Versions: 1 2 3 4 5 6 7 8 9 10 11 12 13 14 15 16 17 18
886
FTUS43 KMPX 201138
TAFEAU
TAF
KEAU 201138Z 2012/2112 26004KT 6SM -SHRA BKN060 BKN080
     FM201400 27007KT P6SM VCSH BKN070
     FM201600 29008KT P6SM SCT070 BKN120
     FM201800 31008KT P6SM SCT120 SCT250
     FM210300 VRB03KT P6SM SCT250=

USA.gov is the U.S. government's official web portal to all federal, state and local government web resources and services.